Archival Weather

Habib Bourguiba Intl

Habib Bourguiba Intl, Tunisia (DTMB)

Report from: Sunday, October 1, 2023 11:00 PM CET
Current time: Saturday, March 2, 2024 11:17 AM CET

Current weather – Weather history – Daily summaries
Weather forecast

Temperature24.0°C (75.2°F)
Dew point20.0°C (68.0°F)
Winds 6 kts (3.1 m/s, 6.9 mph) North-Northeast (30°)
Visibility6.2 mi. (10 km)
Clouds Few clouds 2,600 ft. (792 m)
Altimeter30.18 in.Hg (1022 mB)
Relative humidity78 %
Density altitude1,067 ft. (325 m)
Flight conditions Visual Meteorological Conditions
Raw dataDTMB 012200Z 03006KT 9999 FEW026 24/20 Q1022
An error has occurred. This application may no longer respond until reloaded. Reload 🗙